Impacts METAR Board INFO
IDs:

KBOS - Boston/Logan Intl, MA, US

Updated at: 0731 UTC 24 Nov 2017
Potential Impact None Slight Moderate High
Time23/19Z 23/20Z 23/21Z 23/22Z 23/23Z 24/00Z 24/01Z 24/02Z 24/03Z 24/04Z 24/05Z 24/06Z 24/07Z
VIS10 10 10 10 10 10 10 10 10 10 10 10 10
CIG-- -- -- -- 200 220 220 -- -- -- 100 -- --
CoverFEWSCTSCTSCTBKNOVCBKNSCTSCTSCTBKNCLRCLR
FltCatVFRVFRVFRVFRVFRVFRVFRVFRVFRVFRVFRVFRVFR
WX--------------------------
WDir3002302702702803000290340280280230260
WSpd6 6 6 6 6 6 3 6 6 4 4 5 5
WGst-- -- -- -- -- -- -- -- -- -- -- -- --
Raw hourly METARs
KBOS 231854Z 30006KT 10SM FEW160 FEW250 06/M08 A2997 RMK AO2 SLP149 T00611083
KBOS 231954Z 23006KT 10SM SCT150 SCT180 06/M08 A2997 RMK AO2 SLP148 T00561078
KBOS 232054Z 27006KT 10SM FEW150 SCT180 06/M09 A2997 RMK AO2 SLP148 T00561089 56005
KBOS 232154Z 27006KT 10SM FEW150 FEW180 SCT220 05/M09 A2998 RMK AO2 SLP150 T00501094
KBOS 232254Z 28006KT 10SM BKN200 BKN220 05/M09 A2998 RMK AO2 SLP150 T00501094
KBOS 232354Z 30006KT 10SM FEW180 OVC220 04/M09 A2998 RMK AO2 SLP151 T00391089 10061 20039 51003
KBOS 240054Z VRB03KT 10SM BKN220 03/M09 A2998 RMK AO2 SLP151 T00331089
KBOS 240154Z 29006KT 10SM SCT220 03/M08 A2998 RMK AO2 SLP150 T00281083
KBOS 240254Z 34006KT 10SM FEW220 SCT250 02/M08 A2998 RMK AO2 SLP151 T00221078 53000
KBOS 240354Z 28004KT 10SM FEW220 SCT250 02/M08 A2999 RMK AO2 SLP154 T00171078
KBOS 240454Z 28004KT 10SM BKN100 02/M08 A3000 RMK AO2 SLP157 T00171078 400610000
KBOS 240554Z 23005KT 10SM CLR 00/M06 A2998 RMK AO2 SLP152 T00001061 10044 20000 50001
KBOS 240654Z 26005KT 10SM CLR 01/M06 A2999 RMK AO2 SLP156 T00111061